createdAt,value
2023-01-05T00:01:03.504Z,100895.75
2023-01-05T00:03:31.490Z,100884.00
2023-01-05T00:06:02.768Z,100860.59
2023-01-05T00:08:37.116Z,100857.59
2023-01-05T00:11:23.865Z,100870.47
2023-01-05T00:14:09.424Z,100871.97
2023-01-05T00:16:54.885Z,100856.69
2023-01-05T00:19:40.067Z,100865.66
2023-01-05T00:22:34.928Z,100864.81
2023-01-05T00:25:11.699Z,100868.72
2023-01-05T00:27:40.832Z,100864.44
2023-01-05T00:30:10.136Z,100862.75
2023-01-05T00:32:37.909Z,100863.44
2023-01-05T00:35:06.482Z,100851.81
2023-01-05T00:37:36.315Z,100860.41
2023-01-05T00:40:06.596Z,100842.16
2023-01-05T00:42:34.519Z,100853.50
2023-01-05T00:45:02.462Z,100868.84
2023-01-05T00:47:30.256Z,100863.88
2023-01-05T00:49:57.971Z,100854.53
2023-01-05T00:52:25.726Z,100858.72
2023-01-05T00:54:53.410Z,100850.91
2023-01-05T00:57:22.600Z,100848.53
2023-01-05T00:59:50.559Z,100843.88
2023-01-05T01:02:18.517Z,100844.88
2023-01-05T01:04:46.288Z,100847.84
2023-01-05T01:07:14.008Z,100844.19
2023-01-05T01:09:41.743Z,100840.53
2023-01-05T01:12:09.533Z,100829.59
2023-01-05T01:14:40.174Z,100839.41
2023-01-05T01:17:08.097Z,100831.56
2023-01-05T01:19:35.805Z,100839.91
2023-01-05T01:22:03.719Z,100831.34
2023-01-05T01:24:31.936Z,100834.16
2023-01-05T01:26:59.722Z,100836.00
2023-01-05T01:29:27.575Z,100837.81
2023-01-05T01:31:56.744Z,100839.63
2023-01-05T01:34:24.607Z,100831.66
2023-01-05T01:36:52.306Z,100832.66
2023-01-05T01:39:20.026Z,100822.00
2023-01-05T01:41:48.147Z,100825.69
2023-01-05T01:44:50.193Z,100819.88
2023-01-05T01:47:24.188Z,100828.34
2023-01-05T01:49:52.798Z,100833.09
2023-01-05T01:52:22.944Z,100832.00
2023-01-05T01:54:52.793Z,100829.88
2023-01-05T01:57:22.130Z,100841.72
2023-01-05T01:59:49.987Z,100830.22
2023-01-05T02:02:24.286Z,100843.41
2023-01-05T02:04:52.476Z,100836.63
2023-01-05T02:07:20.323Z,100831.91
2023-01-05T02:09:48.190Z,100836.78
2023-01-05T02:12:32.756Z,100834.63
2023-01-05T02:15:13.673Z,100828.78
2023-01-05T02:17:53.987Z,100830.78
2023-01-05T02:20:49.216Z,100841.97
2023-01-05T02:24:10.673Z,100840.78
2023-01-05T02:27:16.753Z,100850.00
2023-01-05T02:30:05.006Z,100848.03
2023-01-05T02:32:41.454Z,100857.50
2023-01-05T02:35:16.887Z,100861.50
2023-01-05T02:37:50.059Z,100858.97
2023-01-05T02:40:23.291Z,100851.13
2023-01-05T02:42:54.903Z,100853.66
2023-01-05T02:45:24.125Z,100861.59
2023-01-05T02:47:53.299Z,100862.72
2023-01-05T02:50:24.449Z,100860.91
2023-01-05T02:52:59.090Z,100871.09
2023-01-05T02:55:33.582Z,100860.44
2023-01-05T02:58:04.821Z,100868.44
2023-01-05T03:00:37.603Z,100874.44
2023-01-05T03:03:14.543Z,100866.44
2023-01-05T03:05:49.562Z,100871.41
2023-01-05T03:08:32.260Z,100872.69
2023-01-05T03:11:20.988Z,100873.69
2023-01-05T03:13:52.609Z,100874.53
2023-01-05T03:16:24.346Z,100871.34
2023-01-05T03:19:13.756Z,100875.69
2023-01-05T03:22:00.209Z,100868.84
2023-01-05T03:24:45.649Z,100865.03
2023-01-05T03:27:32.221Z,100877.38
2023-01-05T03:30:17.490Z,100879.00
2023-01-05T03:33:07.415Z,100874.91
2023-01-05T03:35:41.785Z,100887.19
2023-01-05T03:38:20.317Z,100891.66
2023-01-05T03:40:52.636Z,100895.63
2023-01-05T03:43:21.341Z,100897.09
2023-01-05T03:45:53.611Z,100896.94
2023-01-05T03:48:22.201Z,100897.22
2023-01-05T03:50:51.272Z,100892.19
2023-01-05T03:53:19.059Z,100902.63
2023-01-05T03:55:47.159Z,100896.94
2023-01-05T03:58:14.919Z,100897.38
2023-01-05T04:00:42.687Z,100909.31
2023-01-05T04:03:10.991Z,100918.59
2023-01-05T04:05:38.887Z,100938.50
2023-01-05T04:08:08.144Z,100940.19
2023-01-05T04:10:36.164Z,100948.34
2023-01-05T04:13:03.951Z,100947.19
2023-01-05T04:15:31.834Z,100944.38
2023-01-05T04:17:59.668Z,100959.78
2023-01-05T04:20:27.367Z,100962.78
2023-01-05T04:22:55.239Z,100954.78
2023-01-05T04:25:24.582Z,100968.78
2023-01-05T04:27:52.477Z,100981.41
2023-01-05T04:30:21.561Z,100980.16
2023-01-05T04:32:49.468Z,100990.38
2023-01-05T04:35:17.405Z,100995.69
2023-01-05T04:37:46.189Z,101004.38
2023-01-05T04:40:14.215Z,100999.72
2023-01-05T04:42:43.495Z,101007.09
2023-01-05T04:45:12.251Z,101001.53
2023-01-05T04:47:40.266Z,100998.19
2023-01-05T04:50:09.685Z,100995.81
2023-01-05T04:52:37.491Z,100994.69
2023-01-05T04:55:06.335Z,100999.31
2023-01-05T04:57:34.528Z,101003.50
2023-01-05T05:00:04.961Z,101005.56
2023-01-05T05:02:34.042Z,101008.06
2023-01-05T05:05:01.966Z,101013.94
2023-01-05T05:07:29.772Z,101009.19
2023-01-05T05:09:57.669Z,101012.56
2023-01-05T05:12:25.484Z,101023.19
2023-01-05T05:14:53.258Z,101018.16
2023-01-05T05:17:22.773Z,101022.97
2023-01-05T05:19:50.703Z,101026.31
2023-01-05T05:22:19.717Z,101030.63
2023-01-05T05:24:49.584Z,101027.13
2023-01-05T05:27:17.340Z,101028.97
2023-01-05T05:29:45.116Z,101021.72
2023-01-05T05:32:14.837Z,101019.75
2023-01-05T05:34:45.827Z,101034.97
2023-01-05T05:37:13.524Z,101038.78
2023-01-05T05:39:41.217Z,101034.72
2023-01-05T05:42:08.948Z,101040.84
2023-01-05T05:44:36.665Z,101052.19
2023-01-05T05:47:09.709Z,101033.69
2023-01-05T05:49:37.371Z,101055.00
2023-01-05T05:52:06.516Z,101050.41
2023-01-05T05:54:34.224Z,101056.13
2023-01-05T05:57:02.086Z,101062.66
2023-01-05T05:59:29.731Z,101066.06
2023-01-05T06:01:57.568Z,101061.84
2023-01-05T06:04:25.348Z,101070.25
2023-01-05T06:06:53.089Z,101076.69
2023-01-05T06:09:24.936Z,101077.41
2023-01-05T06:11:52.764Z,101079.69
2023-01-05T06:14:20.532Z,101079.81
2023-01-05T06:16:48.337Z,101077.16
2023-01-05T06:19:18.295Z,101076.69
2023-01-05T06:21:46.019Z,101071.09
2023-01-05T06:24:13.803Z,101080.66
2023-01-05T06:26:42.893Z,101083.19
2023-01-05T06:29:10.561Z,101083.69
2023-01-05T06:31:38.325Z,101085.97
2023-01-05T06:34:06.027Z,101087.66
2023-01-05T06:36:33.766Z,101096.63
2023-01-05T06:39:01.550Z,101106.44
2023-01-05T06:41:29.376Z,101106.28
2023-01-05T06:43:58.462Z,101086.97
2023-01-05T06:46:26.192Z,101092.28
2023-01-05T06:48:54.203Z,101089.16
2023-01-05T06:51:22.017Z,101092.84
2023-01-05T06:53:49.695Z,101092.28
2023-01-05T06:56:17.420Z,101100.41
2023-01-05T06:58:45.113Z,101095.91
2023-01-05T07:01:14.197Z,101095.91
2023-01-05T07:03:42.066Z,101094.38
2023-01-05T07:06:14.629Z,101090.03
2023-01-05T07:08:42.949Z,101099.19
2023-01-05T07:11:10.643Z,101104.19
2023-01-05T07:13:38.331Z,101103.63
2023-01-05T07:16:06.609Z,101110.63
2023-01-05T07:18:35.642Z,101104.59
2023-01-05T07:21:03.294Z,101104.00
2023-01-05T07:23:31.531Z,101102.94
2023-01-05T07:26:01.875Z,101106.84
2023-01-05T07:28:29.758Z,101103.91
2023-01-05T07:30:57.624Z,101116.72
2023-01-05T07:33:25.306Z,101113.91
2023-01-05T07:35:54.370Z,101120.25
2023-01-05T07:38:22.141Z,101130.78
2023-01-05T07:40:49.832Z,101128.84
2023-01-05T07:43:17.694Z,101125.19
2023-01-05T07:45:45.460Z,101132.19
2023-01-05T07:48:13.160Z,101127.13
2023-01-05T07:50:40.877Z,101138.88
2023-01-05T07:53:10.033Z,101149.25
2023-01-05T07:55:37.654Z,101158.22
2023-01-05T07:58:05.522Z,101153.19
2023-01-05T08:00:33.348Z,101155.16
2023-01-05T08:03:01.081Z,101156.84
2023-01-05T08:05:33.914Z,101161.84
2023-01-05T08:08:01.677Z,101163.53
2023-01-05T08:10:30.710Z,101166.06
2023-01-05T08:13:21.372Z,101169.94
2023-01-05T08:15:51.288Z,101177.94
2023-01-05T08:18:19.715Z,101178.94
2023-01-05T08:20:52.097Z,101172.78
2023-01-05T08:23:26.148Z,101175.28
2023-01-05T08:25:56.111Z,101184.94
2023-01-05T08:28:28.402Z,101182.97
2023-01-05T08:31:05.551Z,101194.31
2023-01-05T08:33:33.520Z,101197.69
2023-01-05T08:36:01.298Z,101198.25
2023-01-05T08:38:29.142Z,101206.94
2023-01-05T08:41:00.857Z,101208.75
2023-01-05T08:43:28.971Z,101213.94
2023-01-05T08:45:57.133Z,101215.63
2023-01-05T08:48:24.980Z,101212.50
2023-01-05T08:50:52.664Z,101218.28
2023-01-05T08:53:20.316Z,101215.91
2023-01-05T08:55:48.008Z,101214.78
2023-01-05T08:58:17.088Z,101216.59
2023-01-05T09:00:44.880Z,101219.13
2023-01-05T09:03:12.705Z,101212.13
2023-01-05T09:05:40.451Z,101216.16
2023-01-05T09:08:11.247Z,101222.59
2023-01-05T09:10:39.094Z,101222.00
2023-01-05T09:13:06.851Z,101217.25
2023-01-05T09:15:36.132Z,101222.25
2023-01-05T09:18:03.882Z,101223.66
2023-01-05T09:20:37.713Z,101222.69
2023-01-05T09:23:07.332Z,101223.94
2023-01-05T09:25:35.060Z,101226.31
2023-01-05T09:28:02.775Z,101234.44
2023-01-05T09:30:34.462Z,101240.59
2023-01-05T09:33:09.544Z,101238.22
2023-01-05T09:35:37.280Z,101233.00
2023-01-05T09:38:04.924Z,101239.06
2023-01-05T09:40:38.759Z,101233.84
2023-01-05T09:43:07.439Z,101231.88
2023-01-05T09:45:35.218Z,101252.34
2023-01-05T09:48:03.027Z,101249.97
2023-01-05T09:50:32.132Z,101243.81
2023-01-05T09:53:01.704Z,101242.69
2023-01-05T09:55:32.728Z,101232.16
2023-01-05T09:58:06.035Z,101228.38
2023-01-05T10:00:34.627Z,101230.59
2023-01-05T10:03:07.426Z,101239.28
2023-01-05T10:05:42.085Z,101237.03
2023-01-05T10:08:17.997Z,101225.69
2023-01-05T10:11:08.577Z,101229.13
2023-01-05T10:13:39.382Z,101233.84
2023-01-05T10:16:07.883Z,101240.03
2023-01-05T10:18:37.673Z,101239.03
2023-01-05T10:21:18.658Z,101240.25
2023-01-05T10:24:01.917Z,101241.34
2023-01-05T10:27:13.999Z,101250.91
2023-01-05T10:29:28.514Z,101238.56
2023-01-05T10:32:00.310Z,101237.44
2023-01-05T10:34:48.877Z,101248.03
2023-01-05T10:37:49.151Z,101242.28
2023-01-05T10:40:30.051Z,101247.19
2023-01-05T10:43:20.912Z,101246.72
2023-01-05T10:46:19.810Z,101246.91
2023-01-05T10:48:37.421Z,101251.69
2023-01-05T10:51:06.886Z,101252.38
2023-01-05T10:53:39.345Z,101258.78
2023-01-05T10:56:12.940Z,101246.13
2023-01-05T10:58:42.721Z,101255.13
2023-01-05T11:01:24.193Z,101248.19
2023-01-05T11:04:25.647Z,101254.16
2023-01-05T11:06:44.406Z,101253.47
2023-01-05T11:09:22.009Z,101247.34
2023-01-05T11:11:55.715Z,101253.69
2023-01-05T11:14:24.187Z,101244.69
2023-01-05T11:16:54.026Z,101246.78
2023-01-05T11:19:25.494Z,101253.16
2023-01-05T11:21:59.808Z,101260.00
2023-01-05T11:24:33.377Z,101257.50
2023-01-05T11:27:03.224Z,101263.72
2023-01-05T11:29:31.644Z,101269.31
2023-01-05T11:32:01.912Z,101267.88
2023-01-05T11:34:35.557Z,101271.56
2023-01-05T11:37:08.633Z,101272.81
2023-01-05T11:39:43.098Z,101271.06
2023-01-05T11:42:23.374Z,101269.91
2023-01-05T11:44:56.509Z,101270.06
2023-01-05T11:47:30.942Z,101272.97
2023-01-05T11:50:08.514Z,101270.38
2023-01-05T11:52:39.335Z,101270.31
2023-01-05T11:55:31.453Z,101263.44
2023-01-05T11:58:21.324Z,101261.78
2023-01-05T12:01:25.875Z,101263.47
2023-01-05T12:04:07.201Z,101270.44
2023-01-05T12:06:51.767Z,101269.69
2023-01-05T12:09:32.651Z,101271.31
2023-01-05T12:12:15.440Z,101266.16
2023-01-05T12:14:58.722Z,101260.69
2023-01-05T12:17:34.766Z,101263.84
2023-01-05T12:20:14.450Z,101269.78
2023-01-05T12:22:57.530Z,101266.59
2023-01-05T12:25:43.124Z,101268.78
2023-01-05T12:28:40.537Z,101271.09
2023-01-05T12:34:39.143Z,101268.94
2023-01-05T12:37:21.500Z,101269.78
2023-01-05T12:40:12.053Z,101275.59
2023-01-05T12:42:59.430Z,101284.72
2023-01-05T12:45:49.943Z,101277.38
2023-01-05T12:48:22.699Z,101283.00
2023-01-05T12:50:57.243Z,101276.91
2023-01-05T12:53:37.741Z,101282.88
2023-01-05T12:56:16.188Z,101273.19
2023-01-05T12:58:52.217Z,101277.22
2023-01-05T13:01:28.811Z,101289.88
2023-01-05T13:03:59.981Z,101284.59
2023-01-05T13:06:32.367Z,101292.75
2023-01-05T13:09:05.100Z,101282.78
2023-01-05T13:11:37.932Z,101295.13
2023-01-05T13:14:11.974Z,101296.81
2023-01-05T13:16:44.186Z,101295.56
2023-01-05T13:19:19.243Z,101290.09
2023-01-05T13:21:48.746Z,101293.22
2023-01-05T13:24:23.130Z,101292.94
2023-01-05T13:26:51.089Z,101294.78
2023-01-05T13:29:25.537Z,101290.16
2023-01-05T13:32:18.485Z,101290.00
2023-01-05T13:35:06.992Z,101293.03
2023-01-05T13:37:50.285Z,101293.03
2023-01-05T13:40:34.458Z,101292.47
2023-01-05T13:43:19.979Z,101297.03
2023-01-05T13:46:30.751Z,101296.56
2023-01-05T13:49:21.402Z,101288.75
2023-01-05T13:51:56.090Z,101285.47
2023-01-05T13:54:59.988Z,101290.31
2023-01-05T13:57:31.676Z,101294.31
2023-01-05T14:00:09.508Z,101283.94
2023-01-05T14:02:42.672Z,101283.22
2023-01-05T14:05:25.466Z,101295.16
2023-01-05T14:07:55.786Z,101285.75
2023-01-05T14:10:25.344Z,101279.44
2023-01-05T14:12:55.173Z,101292.34
2023-01-05T14:15:39.259Z,101282.03
2023-01-05T14:18:08.203Z,101286.16
2023-01-05T14:20:40.904Z,101286.91
2023-01-05T14:23:42.026Z,101291.56
2023-01-05T14:26:10.474Z,101290.72
2023-01-05T14:28:47.274Z,101295.50
2023-01-05T14:31:55.537Z,101294.72
2023-01-05T14:34:26.143Z,101294.63
2023-01-05T14:37:22.113Z,101294.78
2023-01-05T14:39:53.289Z,101295.63
2023-01-05T14:42:31.345Z,101295.81
2023-01-05T14:45:04.232Z,101301.28
2023-01-05T14:47:39.267Z,101307.44
2023-01-05T14:50:25.259Z,101305.91
2023-01-05T14:53:00.733Z,101306.91
2023-01-05T14:55:39.992Z,101310.03
2023-01-05T14:58:14.147Z,101301.84
2023-01-05T15:00:46.675Z,101310.84
2023-01-05T15:03:22.263Z,101309.75
2023-01-05T15:06:01.497Z,101317.91
2023-01-05T15:09:10.592Z,101308.06
2023-01-05T15:11:59.893Z,101317.91
2023-01-05T15:14:45.684Z,101315.41
2023-01-05T15:17:53.773Z,101321.00
2023-01-05T15:20:48.481Z,101327.03
2023-01-05T15:23:37.238Z,101325.66
2023-01-05T15:26:25.759Z,101321.28
2023-01-05T15:29:27.372Z,101319.66
2023-01-05T15:31:58.877Z,101316.97
2023-01-05T15:34:36.545Z,101322.31
2023-01-05T15:37:12.076Z,101315.97
2023-01-05T15:39:47.390Z,101311.47
2023-01-05T15:42:19.696Z,101320.31
2023-01-05T15:44:50.657Z,101317.41
2023-01-05T15:47:20.219Z,101318.53
2023-01-05T15:49:48.713Z,101318.16
2023-01-05T15:52:22.521Z,101309.31
2023-01-05T15:55:02.409Z,101304.97
2023-01-05T15:57:30.426Z,101317.72
2023-01-05T15:59:59.648Z,101313.94
2023-01-05T16:02:29.164Z,101318.28
2023-01-05T16:05:12.965Z,101319.97
2023-01-05T16:08:06.397Z,101315.47
2023-01-05T16:10:38.600Z,101310.44
2023-01-05T16:13:12.294Z,101316.59
2023-01-05T16:15:43.391Z,101317.44
2023-01-05T16:18:19.000Z,101318.16
2023-01-05T16:20:49.982Z,101315.75
2023-01-05T16:23:24.960Z,101320.25
2023-01-05T16:25:57.939Z,101325.88
2023-01-05T16:28:27.112Z,101329.41
2023-01-05T16:30:56.580Z,101325.72
2023-01-05T16:33:34.855Z,101334.56
2023-01-05T16:36:18.438Z,101332.06
2023-01-05T16:38:46.725Z,101328.13
2023-01-05T16:41:20.917Z,101332.09
2023-01-05T16:43:55.229Z,101331.53
2023-01-05T16:46:42.820Z,101328.16
2023-01-05T16:49:32.903Z,101320.75
2023-01-05T16:52:01.530Z,101323.69
2023-01-05T16:54:37.256Z,101319.22
2023-01-05T16:57:29.082Z,101322.84
2023-01-05T16:59:57.719Z,101322.31
2023-01-05T17:02:44.603Z,101327.94
2023-01-05T17:05:15.465Z,101318.97
2023-01-05T17:07:45.026Z,101327.94
2023-01-05T17:10:22.671Z,101322.59
2023-01-05T17:12:57.075Z,101320.78
2023-01-05T17:15:28.036Z,101324.53
2023-01-05T17:17:57.327Z,101325.56
2023-01-05T17:20:27.779Z,101322.72
2023-01-05T17:22:56.548Z,101322.91
2023-01-05T17:25:27.909Z,101323.16
2023-01-05T17:27:55.689Z,101314.63
2023-01-05T17:30:24.177Z,101317.97
2023-01-05T17:32:52.037Z,101320.38
2023-01-05T17:35:21.103Z,101323.44
2023-01-05T17:37:48.875Z,101322.59
2023-01-05T17:40:19.916Z,101320.34
2023-01-05T17:42:48.298Z,101316.44
2023-01-05T17:45:34.630Z,101315.69
2023-01-05T17:48:02.395Z,101305.22
2023-01-05T17:50:33.186Z,101310.00
2023-01-05T17:53:02.945Z,101302.97
2023-01-05T17:55:31.505Z,101308.31
2023-01-05T17:58:00.023Z,101308.56
2023-01-05T18:00:35.055Z,101301.88
2023-01-05T18:03:02.957Z,101308.56
2023-01-05T18:05:32.056Z,101315.56
2023-01-05T18:07:59.777Z,101309.84
2023-01-05T18:10:29.381Z,101309.69
2023-01-05T18:12:57.778Z,101320.50
2023-01-05T18:18:00.577Z,101304.06
2023-01-05T18:20:30.392Z,101306.34
2023-01-05T18:22:59.467Z,101304.78
2023-01-05T18:25:27.177Z,101300.16
2023-01-05T18:27:54.945Z,101303.22
2023-01-05T18:30:22.671Z,101302.13
2023-01-05T18:32:50.437Z,101301.84
2023-01-05T18:35:18.239Z,101302.50
2023-01-05T18:37:46.054Z,101296.63
2023-01-05T18:40:15.500Z,101294.22
2023-01-05T18:42:43.284Z,101293.41
2023-01-05T18:45:19.482Z,101288.91
2023-01-05T18:47:56.692Z,101284.28
2023-01-05T18:50:24.708Z,101285.53
2023-01-05T18:52:52.387Z,101287.13
2023-01-05T18:55:21.426Z,101289.53
2023-01-05T18:57:49.147Z,101290.66
2023-01-05T19:00:17.522Z,101292.88
2023-01-05T19:02:45.441Z,101294.72
2023-01-05T19:05:13.180Z,101289.25
2023-01-05T19:07:40.944Z,101295.00
2023-01-05T19:10:09.484Z,101295.97
2023-01-05T19:12:38.522Z,101295.56
2023-01-05T19:15:06.883Z,101289.25
2023-01-05T19:17:34.634Z,101286.59
2023-01-05T19:20:02.750Z,101295.69
2023-01-05T19:22:30.493Z,101299.19
2023-01-05T19:24:58.870Z,101288.41
2023-01-05T19:27:27.952Z,101300.03
2023-01-05T19:29:57.005Z,101299.34
2023-01-05T19:32:24.782Z,101297.22
2023-01-05T19:34:52.460Z,101293.16
2023-01-05T19:37:20.168Z,101297.38
2023-01-05T19:39:47.905Z,101294.56
2023-01-05T19:42:15.558Z,101290.22
2023-01-05T19:44:44.783Z,101289.69
2023-01-05T19:47:13.842Z,101286.19
2023-01-05T19:49:41.527Z,101286.50
2023-01-05T19:52:09.253Z,101283.41
2023-01-05T19:54:39.256Z,101285.53
2023-01-05T19:57:06.967Z,101290.41
2023-01-05T19:59:34.714Z,101286.06
2023-01-05T20:02:02.956Z,101291.13
2023-01-05T20:04:33.128Z,101281.34
2023-01-05T20:07:03.965Z,101279.09
2023-01-05T20:09:32.588Z,101278.09
2023-01-05T20:12:13.258Z,101277.84
2023-01-05T20:14:42.473Z,101270.13
2023-01-05T20:17:11.781Z,101276.00
2023-01-05T20:19:41.067Z,101274.63
2023-01-05T20:22:13.622Z,101277.00
2023-01-05T20:24:42.299Z,101287.38
2023-01-05T20:27:11.893Z,101283.59
2023-01-05T20:29:40.519Z,101284.84
2023-01-05T20:32:12.098Z,101282.56
2023-01-05T20:34:42.116Z,101278.41
2023-01-05T20:37:11.185Z,101279.25
2023-01-05T20:39:40.595Z,101271.13
2023-01-05T20:42:10.619Z,101275.03
2023-01-05T20:44:39.983Z,101268.31
2023-01-05T20:47:09.208Z,101279.25
2023-01-05T20:49:38.804Z,101267.19
2023-01-05T20:52:09.609Z,101269.31
2023-01-05T20:54:37.965Z,101274.47
2023-01-05T20:57:05.835Z,101267.50
2023-01-05T20:59:35.759Z,101271.28
2023-01-05T21:02:12.280Z,101273.66
2023-01-05T21:04:45.916Z,101267.31
2023-01-05T21:07:14.995Z,101261.75
2023-01-05T21:09:43.213Z,101266.66
2023-01-05T21:12:11.118Z,101264.97
2023-01-05T21:14:39.182Z,101262.31
2023-01-05T21:17:07.279Z,101267.06
2023-01-05T21:19:35.146Z,101267.19
2023-01-05T21:22:03.016Z,101263.81
2023-01-05T21:24:32.127Z,101262.56
2023-01-05T21:27:00.163Z,101264.50
2023-01-05T21:29:28.059Z,101260.13
2023-01-05T21:31:57.171Z,101262.91
2023-01-05T21:34:25.252Z,101266.53
2023-01-05T21:36:53.474Z,101265.72
2023-01-05T21:39:25.009Z,101267.00
2023-01-05T21:42:12.423Z,101271.91
2023-01-05T21:44:40.732Z,101266.47
2023-01-05T21:47:08.997Z,101259.78
2023-01-05T21:49:37.212Z,101257.66
2023-01-05T21:52:23.275Z,101256.41
2023-01-05T21:55:08.781Z,101254.34
2023-01-05T21:57:37.758Z,101260.19
2023-01-05T22:00:07.557Z,101255.19
2023-01-05T22:02:35.365Z,101248.44
2023-01-05T22:05:03.401Z,101244.28
2023-01-05T22:07:31.074Z,101241.44
2023-01-05T22:09:58.941Z,101245.66
2023-01-05T22:12:26.648Z,101236.00
2023-01-05T22:14:55.787Z,101227.03
2023-01-05T22:17:23.928Z,101234.75
2023-01-05T22:19:53.222Z,101230.25
2023-01-05T22:22:21.020Z,101233.06
2023-01-05T22:24:49.304Z,101228.16
2023-01-05T22:27:17.216Z,101223.38
2023-01-05T22:29:44.857Z,101222.16
2023-01-05T22:32:13.949Z,101218.66
2023-01-05T22:34:43.789Z,101225.91
2023-01-05T22:37:11.597Z,101229.81
2023-01-05T22:39:39.284Z,101227.72
2023-01-05T22:42:07.040Z,101223.41
2023-01-05T22:44:34.790Z,101228.31
2023-01-05T22:47:02.494Z,101222.69
2023-01-05T22:49:31.620Z,101224.94
2023-01-05T22:51:59.295Z,101223.13
2023-01-05T22:54:26.977Z,101221.72
2023-01-05T22:56:54.649Z,101227.03
2023-01-05T22:59:22.574Z,101224.81
2023-01-05T23:01:50.384Z,101222.28
2023-01-05T23:04:20.270Z,101222.69
2023-01-05T23:06:49.325Z,101223.41
2023-01-05T23:09:18.212Z,101216.66
2023-01-05T23:11:46.815Z,101213.59
2023-01-05T23:14:17.417Z,101214.81
2023-01-05T23:16:45.328Z,101218.78
2023-01-05T23:19:13.994Z,101212.47
2023-01-05T23:21:41.712Z,101212.31
2023-01-05T23:24:11.304Z,101205.47
2023-01-05T23:26:40.149Z,101202.38
2023-01-05T23:29:07.870Z,101196.91
2023-01-05T23:31:35.623Z,101194.25
2023-01-05T23:34:03.256Z,101202.22
2023-01-05T23:36:30.989Z,101183.88
2023-01-05T23:38:58.670Z,101188.22
2023-01-05T23:41:27.666Z,101189.63
2023-01-05T23:43:55.363Z,101179.28
2023-01-05T23:46:23.733Z,101180.38
2023-01-05T23:48:53.002Z,101180.19
2023-01-05T23:51:20.996Z,101172.81
2023-01-05T23:53:50.526Z,101178.84
2023-01-05T23:56:20.209Z,101173.38
2023-01-05T23:58:49.792Z,101180.09
